createdAt,value
2019-02-24T00:00:30.110Z,43.50
2019-02-24T00:02:58.082Z,43.60
2019-02-24T00:05:26.756Z,42.30
2019-02-24T00:07:55.161Z,42.70
2019-02-24T00:10:22.901Z,41.90
2019-02-24T00:12:50.884Z,43.10
2019-02-24T00:17:47.026Z,42.90
2019-02-24T00:20:16.050Z,42.20
2019-02-24T00:22:44.834Z,42.00
2019-02-24T00:25:13.539Z,41.70
2019-02-24T00:27:41.838Z,41.00
2019-02-24T00:30:09.138Z,40.90
2019-02-24T00:32:37.514Z,40.90
2019-02-24T00:35:05.178Z,40.60
2019-02-24T00:37:33.163Z,41.30
2019-02-24T00:40:01.963Z,41.20
2019-02-24T00:42:30.909Z,41.20
2019-02-24T00:44:59.891Z,40.70
2019-02-24T00:47:28.028Z,41.70
2019-02-24T00:49:55.844Z,41.60
2019-02-24T00:52:23.911Z,42.20
2019-02-24T00:54:51.897Z,40.80
2019-02-24T00:57:20.384Z,41.20
2019-02-24T01:02:16.332Z,40.50
2019-02-24T01:04:44.790Z,40.60
2019-02-24T01:07:13.286Z,41.40
2019-02-24T01:09:41.751Z,41.10
2019-02-24T01:12:09.925Z,41.30
2019-02-24T01:14:37.210Z,41.50
2019-02-24T01:17:05.655Z,40.30
2019-02-24T01:19:34.371Z,42.10
2019-02-24T01:22:03.087Z,41.80
2019-02-24T01:24:30.770Z,40.80
2019-02-24T01:26:59.352Z,41.90
2019-02-24T01:29:28.187Z,41.60
2019-02-24T01:31:56.558Z,41.60
2019-02-24T01:36:55.883Z,41.70
2019-02-24T01:39:24.111Z,41.60
2019-02-24T01:41:52.808Z,41.20
2019-02-24T01:44:20.714Z,41.60
2019-02-24T01:49:17.296Z,41.70
2019-02-24T01:51:45.650Z,42.10
2019-02-24T01:54:13.634Z,42.10
2019-02-24T01:56:41.686Z,43.10
2019-02-24T01:59:10.074Z,43.10
2019-02-24T02:01:38.329Z,42.30
2019-02-24T02:04:06.606Z,43.20
2019-02-24T02:06:34.369Z,42.10
2019-02-24T02:09:02.279Z,42.90
2019-02-24T02:11:29.913Z,42.80
2019-02-24T02:13:57.888Z,43.10
2019-02-24T02:16:25.836Z,42.80
2019-02-24T02:18:54.036Z,42.80
2019-02-24T02:21:22.531Z,42.70
2019-02-24T02:23:50.602Z,42.80
2019-02-24T02:26:18.970Z,43.00
2019-02-24T02:28:48.102Z,43.00
2019-02-24T02:31:16.555Z,43.20
2019-02-24T02:33:44.852Z,42.30
2019-02-24T02:36:13.214Z,42.50
2019-02-24T02:38:41.376Z,42.90
2019-02-24T02:41:09.335Z,42.20
2019-02-24T02:43:37.982Z,41.70
2019-02-24T02:46:06.503Z,42.70
2019-02-24T02:48:35.151Z,42.60
2019-02-24T02:51:03.276Z,43.40
2019-02-24T02:53:31.246Z,42.90
2019-02-24T02:55:59.712Z,43.40
2019-02-24T03:00:56.371Z,43.00
2019-02-24T03:03:24.759Z,43.70
2019-02-24T03:06:15.273Z,43.70
2019-02-24T03:08:51.033Z,43.60
2019-02-24T03:11:20.016Z,43.20
2019-02-24T03:13:50.131Z,43.30
2019-02-24T03:16:24.594Z,43.50
2019-02-24T03:18:52.721Z,43.80
2019-02-24T03:21:21.223Z,42.90
2019-02-24T03:23:49.739Z,43.10
2019-02-24T03:26:18.162Z,43.50
2019-02-24T03:28:46.850Z,43.10
2019-02-24T03:31:15.169Z,43.20
2019-02-24T03:33:44.887Z,42.80
2019-02-24T03:36:13.531Z,42.70
2019-02-24T03:38:41.985Z,42.90
2019-02-24T03:41:09.665Z,42.60
2019-02-24T03:43:37.750Z,43.10
2019-02-24T03:46:05.811Z,42.90
2019-02-24T03:48:34.083Z,43.50
2019-02-24T03:53:30.139Z,42.10
2019-02-24T03:55:58.136Z,42.10
2019-02-24T03:58:25.498Z,42.70
2019-02-24T04:00:53.827Z,43.10
2019-02-24T04:03:22.311Z,43.00
2019-02-24T04:05:50.579Z,43.50
2019-02-24T04:08:19.842Z,43.10
2019-02-24T04:10:48.642Z,43.70
2019-02-24T04:13:16.718Z,43.60
2019-02-24T04:15:44.967Z,43.40
2019-02-24T04:18:13.020Z,43.40
2019-02-24T04:20:41.583Z,42.70
2019-02-24T04:23:09.995Z,43.50
2019-02-24T04:25:37.940Z,42.90
2019-02-24T04:28:05.897Z,42.60
2019-02-24T04:30:33.966Z,43.00
2019-02-24T04:33:01.335Z,42.50
2019-02-24T04:35:29.949Z,42.80
2019-02-24T04:37:57.899Z,42.00
2019-02-24T04:40:25.864Z,42.70
2019-02-24T04:42:53.848Z,42.60
2019-02-24T04:45:22.658Z,42.90
2019-02-24T04:47:49.923Z,42.70
2019-02-24T04:50:18.011Z,42.20
2019-02-24T04:52:46.432Z,41.30
2019-02-24T04:55:14.167Z,41.50
2019-02-24T04:57:42.455Z,41.20
2019-02-24T05:00:11.535Z,41.10
2019-02-24T05:02:40.006Z,40.80
2019-02-24T05:05:08.627Z,41.90
2019-02-24T05:07:36.324Z,42.00
2019-02-24T05:10:05.206Z,41.90
2019-02-24T05:12:33.582Z,42.00
2019-02-24T05:15:01.565Z,41.90
2019-02-24T05:17:29.714Z,41.80
2019-02-24T05:19:58.444Z,42.20
2019-02-24T05:22:26.876Z,42.50
2019-02-24T05:24:55.766Z,42.10
2019-02-24T05:27:23.852Z,42.00
2019-02-24T05:29:51.816Z,42.60
2019-02-24T05:32:19.819Z,42.20
2019-02-24T05:34:47.962Z,42.70
2019-02-24T05:37:16.848Z,42.50
2019-02-24T05:39:46.003Z,43.20
2019-02-24T05:42:14.164Z,42.50
2019-02-24T05:47:11.012Z,42.70
2019-02-24T05:49:39.355Z,42.50
2019-02-24T05:52:08.100Z,42.30
2019-02-24T05:54:38.051Z,42.10
2019-02-24T05:57:06.339Z,41.60
2019-02-24T05:59:34.061Z,41.10
2019-02-24T06:02:01.833Z,41.10
2019-02-24T06:04:29.423Z,41.40
2019-02-24T06:06:57.520Z,40.90
2019-02-24T06:09:26.004Z,40.80
2019-02-24T06:11:54.692Z,41.30
2019-02-24T06:14:22.663Z,41.40
2019-02-24T06:16:50.705Z,41.00
2019-02-24T06:19:19.399Z,41.00
2019-02-24T06:21:47.888Z,41.20
2019-02-24T06:24:16.269Z,41.40
2019-02-24T06:26:45.452Z,41.40
2019-02-24T06:29:14.169Z,41.50
2019-02-24T06:31:45.792Z,41.40
2019-02-24T06:34:13.875Z,41.90
2019-02-24T06:36:42.261Z,42.10
2019-02-24T06:39:10.824Z,42.20
2019-02-24T06:41:39.531Z,42.30
2019-02-24T06:44:07.825Z,42.50
2019-02-24T06:46:37.106Z,43.10
2019-02-24T06:49:05.383Z,43.40
2019-02-24T06:51:33.768Z,43.70
2019-02-24T06:54:04.283Z,43.70
2019-02-24T06:56:32.291Z,43.60
2019-02-24T06:59:00.530Z,44.10
2019-02-24T07:01:29.212Z,44.10
2019-02-24T07:03:57.883Z,43.60
2019-02-24T07:06:28.839Z,43.70
2019-02-24T07:08:57.224Z,43.40
2019-02-24T07:11:25.542Z,44.10
2019-02-24T07:13:54.005Z,43.40
2019-02-24T07:16:21.994Z,43.90
2019-02-24T07:18:51.263Z,44.20
2019-02-24T07:21:19.623Z,43.40
2019-02-24T07:23:47.939Z,42.20
2019-02-24T07:26:16.303Z,42.70
2019-02-24T07:28:44.963Z,42.10
2019-02-24T07:33:40.507Z,41.50
2019-02-24T07:36:09.227Z,41.60
2019-02-24T07:38:49.797Z,42.10
2019-02-24T07:41:18.144Z,41.80
2019-02-24T07:43:46.444Z,39.20
2019-02-24T07:46:14.163Z,39.20
2019-02-24T07:48:42.803Z,37.80
2019-02-24T07:51:12.370Z,37.20
2019-02-24T07:53:40.591Z,37.70
2019-02-24T07:56:08.994Z,36.60
2019-02-24T07:58:36.755Z,37.50
2019-02-24T08:01:05.170Z,36.80
2019-02-24T08:03:33.473Z,37.60
2019-02-24T08:06:03.166Z,34.70
2019-02-24T08:08:38.035Z,34.60
2019-02-24T08:11:06.382Z,33.50
2019-02-24T08:13:35.013Z,31.90
2019-02-24T08:16:03.265Z,31.50
2019-02-24T08:18:31.314Z,29.70
2019-02-24T08:20:59.860Z,29.70
2019-02-24T08:23:28.273Z,31.20
2019-02-24T08:25:56.761Z,27.80
2019-02-24T08:28:24.620Z,28.20
2019-02-24T08:30:52.608Z,27.90
2019-02-24T08:33:20.665Z,26.70
2019-02-24T08:35:48.743Z,26.00
2019-02-24T08:38:16.040Z,26.40
2019-02-24T08:40:44.574Z,26.70
2019-02-24T08:43:12.654Z,27.40
2019-02-24T08:45:41.329Z,27.20
2019-02-24T08:48:09.636Z,26.10
2019-02-24T08:50:38.096Z,27.30
2019-02-24T08:53:05.758Z,25.20
2019-02-24T08:55:33.873Z,21.80
2019-02-24T08:58:01.550Z,22.40
2019-02-24T09:00:30.370Z,23.10
2019-02-24T09:02:58.869Z,22.30
2019-02-24T09:05:28.697Z,21.00
2019-02-24T09:07:57.333Z,22.60
2019-02-24T09:10:26.276Z,20.80
2019-02-24T09:12:54.563Z,19.70
2019-02-24T09:15:24.084Z,19.90
2019-02-24T09:17:51.808Z,19.60
2019-02-24T09:20:20.385Z,17.80
2019-02-24T09:22:48.655Z,19.50
2019-02-24T09:25:18.397Z,17.90
2019-02-24T09:27:47.711Z,17.40
2019-02-24T09:30:16.187Z,18.50
2019-02-24T09:32:45.448Z,18.40
2019-02-24T09:35:13.071Z,17.10
2019-02-24T09:37:42.260Z,18.10
2019-02-24T09:40:10.299Z,16.40
2019-02-24T09:42:39.610Z,16.50
2019-02-24T09:45:08.384Z,16.50
2019-02-24T09:47:46.036Z,17.00
2019-02-24T09:50:07.337Z,16.40
2019-02-24T09:52:35.482Z,16.20
2019-02-24T09:55:03.997Z,15.40
2019-02-24T09:57:32.440Z,15.90
2019-02-24T10:00:03.897Z,16.00
2019-02-24T10:02:32.548Z,15.50
2019-02-24T10:05:00.271Z,15.30
2019-02-24T10:07:28.772Z,14.50
2019-02-24T10:09:57.403Z,13.70
2019-02-24T10:12:25.591Z,14.60
2019-02-24T10:14:53.958Z,14.30
2019-02-24T10:17:22.346Z,14.80
2019-02-24T10:19:50.003Z,14.70
2019-02-24T10:22:18.795Z,13.70
2019-02-24T10:24:47.169Z,12.60
2019-02-24T10:27:15.337Z,12.70
2019-02-24T10:29:43.643Z,12.60
2019-02-24T10:32:11.298Z,13.00
2019-02-24T10:34:40.420Z,12.20
2019-02-24T10:37:08.346Z,12.90
2019-02-24T10:39:36.023Z,12.60
2019-02-24T10:42:05.214Z,12.30
2019-02-24T10:44:34.308Z,12.30
2019-02-24T10:47:02.666Z,11.20
2019-02-24T10:49:30.664Z,11.80
2019-02-24T10:54:27.120Z,11.10
2019-02-24T10:56:56.507Z,10.00
2019-02-24T10:59:24.978Z,9.80
2019-02-24T11:01:52.657Z,9.00
2019-02-24T11:04:21.367Z,7.80
2019-02-24T11:06:49.697Z,7.30
2019-02-24T11:09:18.488Z,7.10
2019-02-24T11:11:46.756Z,6.80
2019-02-24T11:14:15.515Z,5.50
2019-02-24T11:16:44.067Z,5.50
2019-02-24T11:19:12.582Z,6.90
2019-02-24T11:21:40.667Z,6.10
2019-02-24T11:24:10.243Z,5.30
2019-02-24T11:26:38.324Z,5.80
2019-02-24T11:29:14.794Z,5.90
2019-02-24T11:31:43.328Z,6.10
2019-02-24T11:34:11.335Z,5.10
2019-02-24T11:36:39.435Z,4.60
2019-02-24T11:39:07.892Z,4.70
2019-02-24T11:41:36.094Z,5.30
2019-02-24T11:44:04.411Z,5.30
2019-02-24T11:46:32.755Z,5.50
2019-02-24T11:49:01.460Z,6.00
2019-02-24T11:53:56.425Z,5.80
2019-02-24T11:56:24.479Z,6.40
2019-02-24T11:58:52.143Z,4.70
2019-02-24T12:01:20.123Z,4.60
2019-02-24T12:03:48.081Z,5.00
2019-02-24T12:06:16.075Z,4.30
2019-02-24T12:08:44.112Z,4.70
2019-02-24T12:13:41.216Z,5.50
2019-02-24T12:17:33.889Z,5.00
2019-02-24T12:22:32.453Z,4.00
2019-02-24T12:25:23.801Z,5.30
2019-02-24T12:27:52.245Z,5.40
2019-02-24T12:30:21.055Z,5.00
2019-02-24T12:32:49.893Z,5.50
2019-02-24T12:35:19.555Z,5.40
2019-02-24T12:37:47.367Z,5.40
2019-02-24T12:40:15.485Z,8.20
2019-02-24T12:42:50.950Z,8.20
2019-02-24T12:45:19.695Z,8.10
2019-02-24T12:50:16.447Z,8.90
2019-02-24T12:52:45.069Z,9.40
2019-02-24T12:55:13.543Z,9.90
2019-02-24T12:57:41.199Z,10.40
2019-02-24T13:00:13.803Z,9.40
2019-02-24T13:02:42.252Z,9.80
2019-02-24T13:05:10.316Z,9.60
2019-02-24T13:07:38.995Z,9.60
2019-02-24T13:10:08.534Z,9.40
2019-02-24T13:12:37.262Z,9.60
2019-02-24T13:15:05.878Z,10.40
2019-02-24T13:17:42.601Z,10.20
2019-02-24T13:20:10.231Z,9.90
2019-02-24T13:25:06.930Z,8.70
2019-02-24T13:27:38.514Z,8.80
2019-02-24T13:30:07.480Z,9.40
2019-02-24T13:32:35.520Z,8.80
2019-02-24T13:35:06.572Z,8.90
2019-02-24T13:37:35.238Z,9.20
2019-02-24T13:40:03.446Z,9.00
2019-02-24T13:42:31.399Z,9.50
2019-02-24T13:44:59.570Z,9.40
2019-02-24T13:47:28.046Z,10.70
2019-02-24T13:49:56.752Z,9.60
2019-02-24T13:52:24.530Z,7.90
2019-02-24T13:54:52.545Z,8.40
2019-02-24T13:57:21.097Z,8.70
2019-02-24T13:59:49.742Z,7.90
2019-02-24T14:02:24.111Z,8.40
2019-02-24T14:04:49.264Z,7.70
2019-02-24T14:07:17.764Z,8.10
2019-02-24T14:09:46.245Z,11.60
2019-02-24T14:12:15.107Z,10.50
2019-02-24T14:14:49.067Z,10.40
2019-02-24T14:17:14.332Z,9.30
2019-02-24T14:19:42.442Z,10.00
2019-02-24T14:22:10.927Z,8.30
2019-02-24T14:24:38.652Z,8.60
2019-02-24T14:27:07.324Z,8.80
2019-02-24T14:29:35.836Z,9.50
2019-02-24T14:32:03.891Z,10.20
2019-02-24T14:34:32.510Z,9.20
2019-02-24T14:37:00.589Z,9.60
2019-02-24T14:39:28.292Z,8.70
2019-02-24T14:41:56.431Z,10.10
2019-02-24T14:44:24.252Z,10.00
2019-02-24T14:46:52.719Z,10.20
2019-02-24T14:49:21.575Z,9.50
2019-02-24T14:51:49.201Z,10.10
2019-02-24T14:54:16.541Z,8.70
2019-02-24T14:56:45.116Z,9.60
2019-02-24T14:59:13.551Z,12.40
2019-02-24T15:01:42.176Z,11.30
2019-02-24T15:04:10.678Z,9.60
2019-02-24T15:06:39.563Z,10.80
2019-02-24T15:09:08.483Z,10.00
2019-02-24T15:11:36.538Z,10.10
2019-02-24T15:14:05.056Z,9.20
2019-02-24T15:16:33.328Z,9.80
2019-02-24T15:19:01.881Z,9.80
2019-02-24T15:24:00.257Z,10.60
2019-02-24T15:26:29.409Z,10.70
2019-02-24T15:28:58.051Z,12.00
2019-02-24T15:31:26.593Z,12.40
2019-02-24T15:33:54.269Z,13.10
2019-02-24T15:36:22.794Z,13.80
2019-02-24T15:38:51.157Z,13.80
2019-02-24T15:41:29.319Z,14.50
2019-02-24T15:43:50.319Z,13.90
2019-02-24T15:46:18.750Z,14.30
2019-02-24T15:48:47.058Z,15.10
2019-02-24T15:51:15.539Z,15.70
2019-02-24T15:53:44.320Z,14.70
2019-02-24T15:56:12.389Z,14.40
2019-02-24T15:58:40.880Z,14.70
2019-02-24T16:01:09.131Z,15.10
2019-02-24T16:03:38.268Z,14.90
2019-02-24T16:06:06.356Z,15.80
2019-02-24T16:08:34.388Z,14.60
2019-02-24T16:11:03.292Z,15.00
2019-02-24T16:13:31.340Z,15.20
2019-02-24T16:15:59.922Z,15.70
2019-02-24T16:18:28.661Z,16.30
2019-02-24T16:20:56.991Z,15.10
2019-02-24T16:23:25.295Z,15.70
2019-02-24T16:25:53.771Z,16.00
2019-02-24T16:28:21.891Z,16.40
2019-02-24T16:30:50.428Z,16.90
2019-02-24T16:33:19.210Z,16.90
2019-02-24T16:35:46.983Z,16.80
2019-02-24T16:38:14.969Z,16.80
2019-02-24T16:40:43.420Z,17.30
2019-02-24T16:43:12.501Z,17.80
2019-02-24T16:45:40.881Z,17.10
2019-02-24T16:48:09.572Z,17.50
2019-02-24T16:50:37.948Z,17.80
2019-02-24T16:53:06.120Z,18.20
2019-02-24T16:55:34.719Z,18.20
2019-02-24T16:58:03.015Z,17.60
2019-02-24T17:00:32.075Z,17.70
2019-02-24T17:02:59.760Z,18.20
2019-02-24T17:05:29.346Z,18.60
2019-02-24T17:07:58.945Z,17.70
2019-02-24T17:10:27.332Z,18.10
2019-02-24T17:12:55.856Z,18.40
2019-02-24T17:15:23.289Z,18.10
2019-02-24T17:17:51.882Z,18.80
2019-02-24T17:20:21.063Z,19.00
2019-02-24T17:22:49.161Z,18.70
2019-02-24T17:25:17.709Z,18.80
2019-02-24T17:27:46.217Z,18.80
2019-02-24T17:30:15.436Z,21.20
2019-02-24T17:32:43.286Z,20.90
2019-02-24T17:35:14.944Z,20.50
2019-02-24T17:37:42.388Z,21.20
2019-02-24T17:40:11.620Z,22.60
2019-02-24T17:42:39.847Z,22.60
2019-02-24T17:45:10.001Z,23.10
2019-02-24T17:47:37.878Z,22.30
2019-02-24T17:50:06.882Z,22.00
2019-02-24T17:52:35.132Z,22.40
2019-02-24T17:55:04.239Z,23.40
2019-02-24T17:57:34.631Z,23.40
2019-02-24T18:00:02.617Z,23.40
2019-02-24T18:02:30.257Z,23.80
2019-02-24T18:04:58.676Z,23.40
2019-02-24T18:07:29.241Z,23.60
2019-02-24T18:09:57.449Z,24.10
2019-02-24T18:12:25.561Z,23.60
2019-02-24T18:14:53.279Z,24.30
2019-02-24T18:17:22.003Z,24.30
2019-02-24T18:19:55.540Z,24.30
2019-02-24T18:22:24.978Z,23.90
2019-02-24T18:25:03.219Z,24.60
2019-02-24T18:27:30.654Z,24.30
2019-02-24T18:29:59.894Z,24.70
2019-02-24T18:32:27.610Z,24.30
2019-02-24T18:34:57.311Z,24.10
2019-02-24T18:37:25.800Z,25.10
2019-02-24T18:39:53.879Z,24.20
2019-02-24T18:42:21.722Z,24.70
2019-02-24T18:44:50.451Z,24.20
2019-02-24T18:47:19.971Z,24.80
2019-02-24T18:49:47.681Z,25.40
2019-02-24T18:52:16.061Z,25.70
2019-02-24T18:54:43.890Z,25.30
2019-02-24T18:57:11.967Z,25.80
2019-02-24T18:59:40.916Z,27.50
2019-02-24T19:02:08.897Z,26.20
2019-02-24T19:04:38.561Z,25.90
2019-02-24T19:07:06.680Z,26.10
2019-02-24T19:12:08.215Z,25.80
2019-02-24T19:14:37.156Z,26.50
2019-02-24T19:17:05.893Z,26.70
2019-02-24T19:19:34.373Z,26.60
2019-02-24T19:22:04.358Z,27.20
2019-02-24T19:24:32.812Z,27.20
2019-02-24T19:27:01.414Z,27.50
2019-02-24T19:29:35.964Z,27.50
2019-02-24T19:32:04.340Z,27.40
2019-02-24T19:34:33.236Z,26.70
2019-02-24T19:37:01.488Z,27.40
2019-02-24T19:39:31.198Z,27.30
2019-02-24T19:41:59.384Z,27.20
2019-02-24T19:44:28.456Z,27.20
2019-02-24T19:46:57.368Z,26.50
2019-02-24T19:49:25.697Z,26.80
2019-02-24T19:51:53.798Z,26.80
2019-02-24T19:54:23.004Z,27.20
2019-02-24T19:56:51.257Z,27.10
2019-02-24T19:59:19.081Z,27.50
2019-02-24T20:01:47.650Z,27.10
2019-02-24T20:06:44.818Z,27.00
2019-02-24T20:09:12.854Z,27.70
2019-02-24T20:11:41.874Z,27.60
2019-02-24T20:14:09.892Z,27.50
2019-02-24T20:16:42.826Z,27.80
2019-02-24T20:19:11.959Z,27.30
2019-02-24T20:21:49.090Z,27.80
2019-02-24T20:24:19.946Z,27.70
2019-02-24T20:29:18.167Z,27.30
2019-02-24T20:31:46.524Z,27.00
2019-02-24T20:36:59.318Z,26.90
2019-02-24T20:39:29.944Z,27.00
2019-02-24T20:41:58.549Z,26.80
2019-02-24T20:44:28.440Z,27.20
2019-02-24T20:47:02.112Z,27.20
2019-02-24T20:49:33.894Z,27.20
2019-02-24T20:52:06.048Z,27.60
2019-02-24T20:54:37.660Z,27.90
2019-02-24T20:57:13.822Z,28.20
2019-02-24T20:59:42.932Z,28.10
2019-02-24T21:04:47.846Z,28.70
2019-02-24T21:07:23.233Z,28.60
2019-02-24T21:09:55.315Z,28.70
2019-02-24T21:12:24.795Z,29.80
2019-02-24T21:14:59.408Z,29.90
2019-02-24T21:17:28.160Z,30.00
2019-02-24T21:19:57.302Z,30.30
2019-02-24T21:22:26.004Z,30.00
2019-02-24T21:24:54.254Z,29.50
2019-02-24T21:27:22.822Z,29.80
2019-02-24T21:29:51.131Z,30.10
2019-02-24T21:32:21.467Z,30.40
2019-02-24T21:34:49.703Z,29.20
2019-02-24T21:37:17.905Z,29.70
2019-02-24T21:39:48.031Z,29.30
2019-02-24T21:42:16.678Z,29.80
2019-02-24T21:44:47.215Z,29.80
2019-02-24T21:47:15.419Z,29.50
2019-02-24T21:49:44.614Z,29.60
2019-02-24T21:54:41.473Z,29.30
2019-02-24T21:57:11.198Z,29.90
2019-02-24T21:59:39.665Z,28.30
2019-02-24T22:02:08.098Z,28.70
2019-02-24T22:04:37.028Z,29.30
2019-02-24T22:07:05.621Z,29.80
2019-02-24T22:09:33.582Z,29.50
2019-02-24T22:12:02.760Z,27.80
2019-02-24T22:14:32.501Z,28.60
2019-02-24T22:17:01.063Z,29.10
2019-02-24T22:19:29.171Z,28.60
2019-02-24T22:21:58.853Z,29.00
2019-02-24T22:24:28.966Z,28.20
2019-02-24T22:26:59.846Z,28.20
2019-02-24T22:29:30.705Z,28.70
2019-02-24T22:31:58.940Z,28.00
2019-02-24T22:34:28.440Z,28.30
2019-02-24T22:36:57.951Z,28.40
2019-02-24T22:39:29.869Z,28.20
2019-02-24T22:41:57.871Z,28.40
2019-02-24T22:46:55.968Z,28.90
2019-02-24T22:49:24.343Z,29.20
2019-02-24T22:51:53.079Z,29.40
2019-02-24T22:59:17.655Z,30.50
2019-02-24T23:01:48.005Z,29.80
2019-02-24T23:04:16.061Z,29.90
2019-02-24T23:06:44.941Z,29.70
2019-02-24T23:09:16.344Z,29.90
2019-02-24T23:11:46.773Z,29.90
2019-02-24T23:14:15.609Z,29.80
2019-02-24T23:16:46.286Z,30.40
2019-02-24T23:19:14.484Z,30.50
2019-02-24T23:21:43.516Z,30.70
2019-02-24T23:24:12.095Z,31.00
2019-02-24T23:26:40.599Z,30.90
2019-02-24T23:29:08.276Z,31.50
2019-02-24T23:31:36.720Z,31.40
2019-02-24T23:34:04.448Z,31.70
2019-02-24T23:36:33.385Z,32.00
2019-02-24T23:39:01.767Z,31.90
2019-02-24T23:41:29.534Z,31.80
2019-02-24T23:43:58.340Z,32.30
2019-02-24T23:46:27.726Z,32.90
2019-02-24T23:48:55.862Z,32.60
2019-02-24T23:51:23.980Z,32.50
2019-02-24T23:53:52.271Z,32.10
2019-02-24T23:56:22.674Z,32.10
2019-02-24T23:58:50.432Z,32.30
